sensor_id;sensor_type;location;lat;lon;timestamp;pressure;altitude;pressure_sealevel;temperature;humidity
3142;BME280;1581;51.568;6.998;2023-01-26T00:02:00;101832.00;;;0.13;100.00
3142;BME280;1581;51.568;6.998;2023-01-26T00:04:28;101827.81;;;-0.17;100.00
3142;BME280;1581;51.568;6.998;2023-01-26T00:06:57;101817.97;;;0.14;100.00
3142;BME280;1581;51.568;6.998;2023-01-26T00:09:25;101804.53;;;-0.21;100.00
3142;BME280;1581;51.568;6.998;2023-01-26T00:11:52;101802.63;;;0.08;100.00
3142;BME280;1581;51.568;6.998;2023-01-26T00:14:20;101785.56;;;-0.11;100.00
3142;BME280;1581;51.568;6.998;2023-01-26T00:16:48;101787.97;;;0.32;100.00
3142;BME280;1581;51.568;6.998;2023-01-26T00:19:15;101798.53;;;0.57;100.00
3142;BME280;1581;51.568;6.998;2023-01-26T00:21:43;101797.78;;;0.55;100.00
3142;BME280;1581;51.568;6.998;2023-01-26T00:24:12;101793.66;;;0.39;100.00
3142;BME280;1581;51.568;6.998;2023-01-26T00:26:40;101779.16;;;0.07;100.00
3142;BME280;1581;51.568;6.998;2023-01-26T00:29:08;101779.63;;;-0.01;100.00
3142;BME280;1581;51.568;6.998;2023-01-26T00:31:35;101774.38;;;-0.01;100.00
3142;BME280;1581;51.568;6.998;2023-01-26T00:34:03;101772.09;;;0.21;100.00
3142;BME280;1581;51.568;6.998;2023-01-26T00:36:31;101777.97;;;0.25;100.00
3142;BME280;1581;51.568;6.998;2023-01-26T00:38:59;101772.56;;;0.40;100.00
3142;BME280;1581;51.568;6.998;2023-01-26T00:41:29;101768.00;;;0.56;100.00
3142;BME280;1581;51.568;6.998;2023-01-26T00:44:22;101759.50;;;0.53;100.00
3142;BME280;1581;51.568;6.998;2023-01-26T00:46:50;101752.19;;;0.58;100.00
3142;BME280;1581;51.568;6.998;2023-01-26T00:49:18;101758.34;;;0.18;100.00
3142;BME280;1581;51.568;6.998;2023-01-26T00:51:46;101750.69;;;0.54;100.00
3142;BME280;1581;51.568;6.998;2023-01-26T00:54:14;101751.66;;;0.65;100.00
3142;BME280;1581;51.568;6.998;2023-01-26T00:56:43;101749.25;;;0.62;100.00
3142;BME280;1581;51.568;6.998;2023-01-26T00:59:11;101745.31;;;0.16;100.00
3142;BME280;1581;51.568;6.998;2023-01-26T01:01:39;101751.50;;;0.15;100.00
3142;BME280;1581;51.568;6.998;2023-01-26T01:04:06;101758.69;;;0.65;100.00
3142;BME280;1581;51.568;6.998;2023-01-26T01:06:36;101767.19;;;0.68;100.00
3142;BME280;1581;51.568;6.998;2023-01-26T01:09:04;101763.53;;;0.71;100.00
3142;BME280;1581;51.568;6.998;2023-01-26T01:11:32;101768.88;;;0.57;100.00
3142;BME280;1581;51.568;6.998;2023-01-26T01:14:02;101753.00;;;0.58;100.00
3142;BME280;1581;51.568;6.998;2023-01-26T01:16:29;101747.84;;;0.44;100.00
3142;BME280;1581;51.568;6.998;2023-01-26T01:18:57;101751.78;;;0.64;100.00
3142;BME280;1581;51.568;6.998;2023-01-26T01:21:25;101753.47;;;0.38;100.00
3142;BME280;1581;51.568;6.998;2023-01-26T01:23:52;101744.41;;;0.56;100.00
3142;BME280;1581;51.568;6.998;2023-01-26T01:26:20;101744.94;;;0.22;100.00
3142;BME280;1581;51.568;6.998;2023-01-26T01:28:48;101750.06;;;0.24;100.00
3142;BME280;1581;51.568;6.998;2023-01-26T01:31:17;101741.06;;;0.54;100.00
3142;BME280;1581;51.568;6.998;2023-01-26T01:33:45;101739.03;;;-0.07;100.00
3142;BME280;1581;51.568;6.998;2023-01-26T01:36:16;101730.94;;;0.09;100.00
3142;BME280;1581;51.568;6.998;2023-01-26T01:38:45;101741.75;;;0.17;100.00
3142;BME280;1581;51.568;6.998;2023-01-26T01:41:18;101735.97;;;-0.14;100.00
3142;BME280;1581;51.568;6.998;2023-01-26T01:43:46;101738.13;;;-0.20;100.00
3142;BME280;1581;51.568;6.998;2023-01-26T01:46:25;101735.09;;;-0.14;100.00
3142;BME280;1581;51.568;6.998;2023-01-26T01:48:58;101728.22;;;-0.15;100.00
3142;BME280;1581;51.568;6.998;2023-01-26T01:51:32;101725.31;;;-0.11;100.00
3142;BME280;1581;51.568;6.998;2023-01-26T01:54:04;101731.38;;;-0.10;100.00
3142;BME280;1581;51.568;6.998;2023-01-26T01:56:34;101732.19;;;-0.36;100.00
3142;BME280;1581;51.568;6.998;2023-01-26T01:59:05;101725.66;;;-0.57;100.00
3142;BME280;1581;51.568;6.998;2023-01-26T02:01:35;101714.19;;;-0.28;100.00
3142;BME280;1581;51.568;6.998;2023-01-26T02:04:05;101711.63;;;-0.16;100.00
3142;BME280;1581;51.568;6.998;2023-01-26T02:06:38;101707.31;;;-0.57;100.00
3142;BME280;1581;51.568;6.998;2023-01-26T02:09:09;101714.56;;;-0.34;100.00
3142;BME280;1581;51.568;6.998;2023-01-26T02:11:58;101709.75;;;0.00;100.00
3142;BME280;1581;51.568;6.998;2023-01-26T02:14:29;101712.22;;;-0.11;100.00
3142;BME280;1581;51.568;6.998;2023-01-26T02:16:59;101700.34;;;-0.30;100.00
3142;BME280;1581;51.568;6.998;2023-01-26T02:19:45;101705.38;;;0.13;100.00
3142;BME280;1581;51.568;6.998;2023-01-26T02:22:27;101710.88;;;0.22;100.00
3142;BME280;1581;51.568;6.998;2023-01-26T02:25:02;101710.00;;;0.48;100.00
3142;BME280;1581;51.568;6.998;2023-01-26T02:27:35;101700.56;;;0.19;100.00
3142;BME280;1581;51.568;6.998;2023-01-26T02:30:06;101712.28;;;0.40;100.00
3142;BME280;1581;51.568;6.998;2023-01-26T02:32:34;101706.84;;;-0.09;100.00
3142;BME280;1581;51.568;6.998;2023-01-26T02:35:01;101702.50;;;-0.23;100.00
3142;BME280;1581;51.568;6.998;2023-01-26T02:37:29;101700.09;;;0.00;100.00
3142;BME280;1581;51.568;6.998;2023-01-26T02:40:00;101710.44;;;-0.24;100.00
3142;BME280;1581;51.568;6.998;2023-01-26T02:42:29;101712.78;;;0.06;100.00
3142;BME280;1581;51.568;6.998;2023-01-26T02:45:11;101700.69;;;-0.08;100.00
3142;BME280;1581;51.568;6.998;2023-01-26T02:47:40;101708.06;;;-0.01;100.00
3142;BME280;1581;51.568;6.998;2023-01-26T02:50:11;101705.53;;;-0.03;100.00
3142;BME280;1581;51.568;6.998;2023-01-26T02:52:38;101698.81;;;-0.06;100.00
3142;BME280;1581;51.568;6.998;2023-01-26T02:55:08;101696.50;;;-0.11;100.00
3142;BME280;1581;51.568;6.998;2023-01-26T02:57:56;101693.44;;;0.09;100.00
3142;BME280;1581;51.568;6.998;2023-01-26T03:00:28;101692.31;;;0.25;100.00
3142;BME280;1581;51.568;6.998;2023-01-26T03:02:57;101687.75;;;0.41;100.00
3142;BME280;1581;51.568;6.998;2023-01-26T03:05:26;101692.06;;;0.42;100.00
3142;BME280;1581;51.568;6.998;2023-01-26T03:07:54;101691.13;;;0.17;100.00
3142;BME280;1581;51.568;6.998;2023-01-26T03:10:22;101689.31;;;0.44;100.00
3142;BME280;1581;51.568;6.998;2023-01-26T03:12:52;101689.78;;;0.63;100.00
3142;BME280;1581;51.568;6.998;2023-01-26T03:15:19;101691.06;;;0.70;100.00
3142;BME280;1581;51.568;6.998;2023-01-26T03:18:12;101693.38;;;0.74;100.00
3142;BME280;1581;51.568;6.998;2023-01-26T03:20:58;101696.31;;;0.82;100.00
3142;BME280;1581;51.568;6.998;2023-01-26T03:23:44;101684.72;;;0.47;100.00
3142;BME280;1581;51.568;6.998;2023-01-26T03:26:29;101684.13;;;0.69;100.00
3142;BME280;1581;51.568;6.998;2023-01-26T03:29:14;101684.38;;;0.39;100.00
3142;BME280;1581;51.568;6.998;2023-01-26T03:31:42;101684.84;;;0.58;100.00
3142;BME280;1581;51.568;6.998;2023-01-26T03:34:11;101683.50;;;0.26;100.00
3142;BME280;1581;51.568;6.998;2023-01-26T03:36:39;101688.88;;;0.37;100.00
3142;BME280;1581;51.568;6.998;2023-01-26T03:39:06;101682.97;;;0.60;100.00
3142;BME280;1581;51.568;6.998;2023-01-26T03:41:34;101690.72;;;0.23;100.00
3142;BME280;1581;51.568;6.998;2023-01-26T03:44:22;101677.94;;;-0.08;100.00
3142;BME280;1581;51.568;6.998;2023-01-26T03:47:07;101680.03;;;0.13;100.00
3142;BME280;1581;51.568;6.998;2023-01-26T03:49:53;101674.44;;;-0.21;100.00
3142;BME280;1581;51.568;6.998;2023-01-26T03:52:38;101675.75;;;0.25;100.00
3142;BME280;1581;51.568;6.998;2023-01-26T03:55:23;101670.06;;;0.18;100.00
3142;BME280;1581;51.568;6.998;2023-01-26T03:58:08;101674.50;;;-0.08;100.00
3142;BME280;1581;51.568;6.998;2023-01-26T04:00:36;101662.53;;;0.26;100.00
3142;BME280;1581;51.568;6.998;2023-01-26T04:03:04;101662.69;;;0.11;100.00
3142;BME280;1581;51.568;6.998;2023-01-26T04:05:50;101659.56;;;-0.20;100.00
3142;BME280;1581;51.568;6.998;2023-01-26T04:08:35;101665.31;;;0.11;100.00
3142;BME280;1581;51.568;6.998;2023-01-26T04:11:03;101665.22;;;0.39;100.00
3142;BME280;1581;51.568;6.998;2023-01-26T04:13:30;101665.59;;;0.33;100.00
3142;BME280;1581;51.568;6.998;2023-01-26T04:16:15;101666.84;;;0.27;100.00
3142;BME280;1581;51.568;6.998;2023-01-26T04:19:04;101667.66;;;0.54;100.00
3142;BME280;1581;51.568;6.998;2023-01-26T04:21:51;101666.63;;;0.18;100.00
3142;BME280;1581;51.568;6.998;2023-01-26T04:24:18;101665.41;;;0.48;100.00
3142;BME280;1581;51.568;6.998;2023-01-26T04:26:47;101664.03;;;0.30;100.00
3142;BME280;1581;51.568;6.998;2023-01-26T04:29:15;101665.53;;;0.47;100.00
3142;BME280;1581;51.568;6.998;2023-01-26T04:31:43;101665.53;;;0.59;100.00
3142;BME280;1581;51.568;6.998;2023-01-26T04:34:13;101661.75;;;0.51;100.00
3142;BME280;1581;51.568;6.998;2023-01-26T04:36:42;101666.03;;;0.39;100.00
3142;BME280;1581;51.568;6.998;2023-01-26T04:39:11;101662.59;;;0.51;100.00
3142;BME280;1581;51.568;6.998;2023-01-26T04:41:39;101664.16;;;0.66;100.00
3142;BME280;1581;51.568;6.998;2023-01-26T04:44:06;101663.47;;;0.64;100.00
3142;BME280;1581;51.568;6.998;2023-01-26T04:46:34;101652.53;;;0.82;100.00
3142;BME280;1581;51.568;6.998;2023-01-26T04:49:02;101658.66;;;0.83;100.00
3142;BME280;1581;51.568;6.998;2023-01-26T04:51:30;101656.84;;;0.59;100.00
3142;BME280;1581;51.568;6.998;2023-01-26T04:53:57;101661.03;;;0.74;100.00
3142;BME280;1581;51.568;6.998;2023-01-26T04:56:29;101663.25;;;0.80;100.00
3142;BME280;1581;51.568;6.998;2023-01-26T04:58:59;101661.91;;;0.74;100.00
3142;BME280;1581;51.568;6.998;2023-01-26T05:01:28;101661.34;;;0.57;100.00
3142;BME280;1581;51.568;6.998;2023-01-26T05:03:59;101663.97;;;0.69;100.00
3142;BME280;1581;51.568;6.998;2023-01-26T05:06:27;101662.63;;;0.88;100.00
3142;BME280;1581;51.568;6.998;2023-01-26T05:08:56;101660.31;;;0.96;100.00
3142;BME280;1581;51.568;6.998;2023-01-26T05:11:26;101661.13;;;0.97;100.00
3142;BME280;1581;51.568;6.998;2023-01-26T05:13:53;101657.69;;;1.09;100.00
3142;BME280;1581;51.568;6.998;2023-01-26T05:16:21;101661.25;;;0.95;100.00
3142;BME280;1581;51.568;6.998;2023-01-26T05:18:49;101652.03;;;0.90;100.00
3142;BME280;1581;51.568;6.998;2023-01-26T05:21:16;101658.84;;;0.80;100.00
3142;BME280;1581;51.568;6.998;2023-01-26T05:23:44;101657.59;;;0.73;100.00
3142;BME280;1581;51.568;6.998;2023-01-26T05:26:12;101657.06;;;0.93;100.00
3142;BME280;1581;51.568;6.998;2023-01-26T05:28:40;101656.00;;;0.71;100.00
3142;BME280;1581;51.568;6.998;2023-01-26T05:31:08;101660.72;;;0.78;100.00
3142;BME280;1581;51.568;6.998;2023-01-26T05:33:36;101677.50;;;0.63;100.00
3142;BME280;1581;51.568;6.998;2023-01-26T05:36:06;101672.78;;;0.68;100.00
3142;BME280;1581;51.568;6.998;2023-01-26T05:38:34;101670.50;;;0.88;100.00
3142;BME280;1581;51.568;6.998;2023-01-26T05:41:06;101666.78;;;1.16;100.00
3142;BME280;1581;51.568;6.998;2023-01-26T05:43:34;101669.56;;;1.02;100.00
3142;BME280;1581;51.568;6.998;2023-01-26T05:46:09;101675.59;;;0.65;100.00
3142;BME280;1581;51.568;6.998;2023-01-26T05:48:46;101677.06;;;0.44;100.00
3142;BME280;1581;51.568;6.998;2023-01-26T05:51:18;101670.16;;;0.43;100.00
3142;BME280;1581;51.568;6.998;2023-01-26T05:53:46;101667.53;;;0.68;100.00
3142;BME280;1581;51.568;6.998;2023-01-26T05:56:14;101664.38;;;1.00;100.00
3142;BME280;1581;51.568;6.998;2023-01-26T05:58:42;101665.13;;;1.15;100.00
3142;BME280;1581;51.568;6.998;2023-01-26T06:01:11;101664.81;;;0.94;100.00
3142;BME280;1581;51.568;6.998;2023-01-26T06:03:39;101664.09;;;0.68;100.00
3142;BME280;1581;51.568;6.998;2023-01-26T06:06:06;101656.22;;;0.92;100.00
3142;BME280;1581;51.568;6.998;2023-01-26T06:08:34;101662.28;;;0.81;100.00
3142;BME280;1581;51.568;6.998;2023-01-26T06:11:02;101669.22;;;0.69;100.00
3142;BME280;1581;51.568;6.998;2023-01-26T06:13:30;101674.34;;;0.58;100.00
3142;BME280;1581;51.568;6.998;2023-01-26T06:16:00;101680.16;;;0.76;100.00
3142;BME280;1581;51.568;6.998;2023-01-26T06:18:29;101669.09;;;0.58;100.00
3142;BME280;1581;51.568;6.998;2023-01-26T06:20:58;101665.44;;;0.61;100.00
3142;BME280;1581;51.568;6.998;2023-01-26T06:23:27;101673.09;;;0.76;100.00
3142;BME280;1581;51.568;6.998;2023-01-26T06:25:58;101675.72;;;0.76;100.00
3142;BME280;1581;51.568;6.998;2023-01-26T06:28:26;101672.16;;;0.65;100.00
3142;BME280;1581;51.568;6.998;2023-01-26T06:30:59;101672.88;;;0.54;100.00
3142;BME280;1581;51.568;6.998;2023-01-26T06:33:28;101667.56;;;0.17;100.00
3142;BME280;1581;51.568;6.998;2023-01-26T06:35:59;101667.16;;;0.35;100.00
3142;BME280;1581;51.568;6.998;2023-01-26T06:38:28;101671.53;;;0.10;100.00
3142;BME280;1581;51.568;6.998;2023-01-26T06:40:59;101668.44;;;0.30;100.00
3142;BME280;1581;51.568;6.998;2023-01-26T06:43:28;101667.66;;;0.54;100.00
3142;BME280;1581;51.568;6.998;2023-01-26T06:45:56;101671.91;;;0.43;100.00
3142;BME280;1581;51.568;6.998;2023-01-26T06:48:25;101676.25;;;0.69;100.00
3142;BME280;1581;51.568;6.998;2023-01-26T06:50:58;101678.47;;;0.75;100.00
3142;BME280;1581;51.568;6.998;2023-01-26T06:53:33;101675.31;;;0.82;100.00
3142;BME280;1581;51.568;6.998;2023-01-26T06:56:05;101679.25;;;0.38;100.00
3142;BME280;1581;51.568;6.998;2023-01-26T06:58:34;101679.16;;;0.52;100.00
3142;BME280;1581;51.568;6.998;2023-01-26T07:01:02;101683.91;;;0.59;100.00
3142;BME280;1581;51.568;6.998;2023-01-26T07:03:30;101676.78;;;0.74;100.00
3142;BME280;1581;51.568;6.998;2023-01-26T07:06:00;101672.56;;;0.96;100.00
3142;BME280;1581;51.568;6.998;2023-01-26T07:08:27;101682.88;;;0.86;100.00
3142;BME280;1581;51.568;6.998;2023-01-26T07:10:55;101681.09;;;0.99;100.00
3142;BME280;1581;51.568;6.998;2023-01-26T07:13:23;101688.72;;;1.15;100.00
3142;BME280;1581;51.568;6.998;2023-01-26T07:15:51;101683.91;;;1.09;100.00
3142;BME280;1581;51.568;6.998;2023-01-26T07:18:19;101685.38;;;1.25;100.00
3142;BME280;1581;51.568;6.998;2023-01-26T07:20:46;101684.09;;;0.56;100.00
3142;BME280;1581;51.568;6.998;2023-01-26T07:23:15;101677.78;;;0.46;100.00
3142;BME280;1581;51.568;6.998;2023-01-26T07:25:43;101682.63;;;0.52;100.00
3142;BME280;1581;51.568;6.998;2023-01-26T07:28:11;101680.66;;;0.56;100.00
3142;BME280;1581;51.568;6.998;2023-01-26T07:30:38;101686.09;;;0.65;100.00
3142;BME280;1581;51.568;6.998;2023-01-26T07:33:06;101679.59;;;0.58;100.00
3142;BME280;1581;51.568;6.998;2023-01-26T07:35:35;101679.13;;;0.27;100.00
3142;BME280;1581;51.568;6.998;2023-01-26T07:38:03;101676.19;;;0.31;100.00
3142;BME280;1581;51.568;6.998;2023-01-26T07:40:32;101674.31;;;0.33;100.00
3142;BME280;1581;51.568;6.998;2023-01-26T07:43:00;101677.47;;;0.51;100.00
3142;BME280;1581;51.568;6.998;2023-01-26T07:45:28;101670.59;;;0.87;100.00
3142;BME280;1581;51.568;6.998;2023-01-26T07:47:56;101680.53;;;0.57;100.00
3142;BME280;1581;51.568;6.998;2023-01-26T07:50:24;101686.63;;;0.70;100.00
3142;BME280;1581;51.568;6.998;2023-01-26T07:52:52;101687.13;;;0.50;100.00
3142;BME280;1581;51.568;6.998;2023-01-26T07:55:20;101682.75;;;0.76;100.00
3142;BME280;1581;51.568;6.998;2023-01-26T07:57:52;101682.97;;;0.73;100.00
3142;BME280;1581;51.568;6.998;2023-01-26T08:00:21;101684.31;;;0.66;100.00
3142;BME280;1581;51.568;6.998;2023-01-26T08:02:49;101682.22;;;0.58;100.00
3142;BME280;1581;51.568;6.998;2023-01-26T08:05:17;101687.47;;;0.71;100.00
3142;BME280;1581;51.568;6.998;2023-01-26T08:07:45;101691.56;;;0.87;100.00
3142;BME280;1581;51.568;6.998;2023-01-26T08:10:12;101692.13;;;0.92;100.00
3142;BME280;1581;51.568;6.998;2023-01-26T08:12:40;101690.22;;;1.06;100.00
3142;BME280;1581;51.568;6.998;2023-01-26T08:15:11;101696.94;;;1.23;100.00
3142;BME280;1581;51.568;6.998;2023-01-26T08:17:38;101695.84;;;1.38;100.00
3142;BME280;1581;51.568;6.998;2023-01-26T08:20:07;101695.69;;;1.28;100.00
3142;BME280;1581;51.568;6.998;2023-01-26T08:22:35;101697.75;;;0.86;100.00
3142;BME280;1581;51.568;6.998;2023-01-26T08:25:04;101696.09;;;1.10;100.00
3142;BME280;1581;51.568;6.998;2023-01-26T08:27:32;101695.84;;;1.38;100.00
3142;BME280;1581;51.568;6.998;2023-01-26T08:29:59;101698.63;;;1.24;100.00
3142;BME280;1581;51.568;6.998;2023-01-26T08:32:30;101691.88;;;1.45;100.00
3142;BME280;1581;51.568;6.998;2023-01-26T08:34:57;101689.84;;;1.61;100.00
3142;BME280;1581;51.568;6.998;2023-01-26T08:37:25;101694.81;;;1.53;100.00
3142;BME280;1581;51.568;6.998;2023-01-26T08:39:53;101702.13;;;1.60;100.00
3142;BME280;1581;51.568;6.998;2023-01-26T08:42:20;101695.81;;;1.63;100.00
3142;BME280;1581;51.568;6.998;2023-01-26T08:44:48;101700.25;;;1.50;100.00
3142;BME280;1581;51.568;6.998;2023-01-26T08:47:17;101703.09;;;1.59;100.00
3142;BME280;1581;51.568;6.998;2023-01-26T08:49:46;101709.41;;;1.44;100.00
3142;BME280;1581;51.568;6.998;2023-01-26T08:52:13;101706.34;;;1.63;100.00
3142;BME280;1581;51.568;6.998;2023-01-26T08:54:41;101710.41;;;1.67;100.00
3142;BME280;1581;51.568;6.998;2023-01-26T08:57:09;101708.59;;;1.79;100.00
3142;BME280;1581;51.568;6.998;2023-01-26T08:59:37;101705.16;;;2.02;100.00
3142;BME280;1581;51.568;6.998;2023-01-26T09:02:05;101710.41;;;2.02;100.00
3142;BME280;1581;51.568;6.998;2023-01-26T09:04:33;101710.00;;;2.19;100.00
3142;BME280;1581;51.568;6.998;2023-01-26T09:07:02;101713.13;;;2.01;100.00
3142;BME280;1581;51.568;6.998;2023-01-26T09:09:31;101724.28;;;2.04;100.00
3142;BME280;1581;51.568;6.998;2023-01-26T09:11:58;101717.78;;;1.97;100.00
3142;BME280;1581;51.568;6.998;2023-01-26T09:14:27;101715.53;;;2.27;100.00
3142;BME280;1581;51.568;6.998;2023-01-26T09:16:55;101715.59;;;2.38;100.00
3142;BME280;1581;51.568;6.998;2023-01-26T09:19:22;101720.88;;;2.15;100.00
3142;BME280;1581;51.568;6.998;2023-01-26T09:21:52;101722.28;;;2.08;100.00
3142;BME280;1581;51.568;6.998;2023-01-26T09:24:22;101717.69;;;1.51;100.00
3142;BME280;1581;51.568;6.998;2023-01-26T09:26:50;101721.16;;;1.64;100.00
3142;BME280;1581;51.568;6.998;2023-01-26T09:29:18;101718.31;;;1.90;100.00
3142;BME280;1581;51.568;6.998;2023-01-26T09:31:46;101728.06;;;2.00;100.00
3142;BME280;1581;51.568;6.998;2023-01-26T09:34:14;101724.16;;;2.29;100.00
3142;BME280;1581;51.568;6.998;2023-01-26T09:36:41;101723.44;;;2.27;100.00
3142;BME280;1581;51.568;6.998;2023-01-26T09:39:09;101731.69;;;2.57;100.00
3142;BME280;1581;51.568;6.998;2023-01-26T09:41:56;101733.13;;;2.50;100.00
3142;BME280;1581;51.568;6.998;2023-01-26T09:44:36;101732.59;;;2.45;100.00
3142;BME280;1581;51.568;6.998;2023-01-26T09:47:16;101738.38;;;2.84;100.00
3142;BME280;1581;51.568;6.998;2023-01-26T09:49:48;101735.25;;;2.90;100.00
3142;BME280;1581;51.568;6.998;2023-01-26T09:52:25;101729.09;;;2.68;100.00
3142;BME280;1581;51.568;6.998;2023-01-26T09:54:56;101722.03;;;2.57;100.00
3142;BME280;1581;51.568;6.998;2023-01-26T09:57:31;101721.81;;;2.37;100.00
3142;BME280;1581;51.568;6.998;2023-01-26T10:00:06;101722.41;;;2.75;100.00
3142;BME280;1581;51.568;6.998;2023-01-26T10:02:51;101720.72;;;2.63;100.00
3142;BME280;1581;51.568;6.998;2023-01-26T10:05:30;101722.63;;;2.95;100.00
3142;BME280;1581;51.568;6.998;2023-01-26T10:07:59;101725.34;;;2.83;100.00
3142;BME280;1581;51.568;6.998;2023-01-26T10:10:33;101726.28;;;2.82;100.00
3142;BME280;1581;51.568;6.998;2023-01-26T10:13:04;101724.25;;;2.85;100.00
3142;BME280;1581;51.568;6.998;2023-01-26T10:15:36;101721.13;;;2.80;100.00
3142;BME280;1581;51.568;6.998;2023-01-26T10:18:08;101718.66;;;3.01;100.00
3142;BME280;1581;51.568;6.998;2023-01-26T10:20:44;101711.63;;;3.23;100.00
3142;BME280;1581;51.568;6.998;2023-01-26T10:23:17;101705.09;;;2.83;100.00
3142;BME280;1581;51.568;6.998;2023-01-26T10:25:49;101712.31;;;2.92;100.00
3142;BME280;1581;51.568;6.998;2023-01-26T10:28:26;101701.94;;;3.02;100.00
3142;BME280;1581;51.568;6.998;2023-01-26T10:30:55;101713.78;;;3.07;100.00
3142;BME280;1581;51.568;6.998;2023-01-26T10:33:26;101704.09;;;3.19;100.00
3142;BME280;1581;51.568;6.998;2023-01-26T10:35:59;101702.53;;;3.16;100.00
3142;BME280;1581;51.568;6.998;2023-01-26T10:38:40;101697.91;;;2.74;100.00
3142;BME280;1581;51.568;6.998;2023-01-26T10:41:26;101691.25;;;3.03;100.00
3142;BME280;1581;51.568;6.998;2023-01-26T10:43:57;101697.03;;;3.08;100.00
3142;BME280;1581;51.568;6.998;2023-01-26T10:46:32;101694.63;;;3.05;100.00
3142;BME280;1581;51.568;6.998;2023-01-26T10:49:08;101694.59;;;2.94;100.00
3142;BME280;1581;51.568;6.998;2023-01-26T10:51:43;101701.31;;;2.98;100.00
3142;BME280;1581;51.568;6.998;2023-01-26T10:54:22;101703.31;;;2.95;100.00
3142;BME280;1581;51.568;6.998;2023-01-26T10:56:53;101689.81;;;2.88;100.00
3142;BME280;1581;51.568;6.998;2023-01-26T10:59:32;101696.78;;;3.11;100.00
3142;BME280;1581;51.568;6.998;2023-01-26T11:02:17;101698.59;;;3.11;100.00
3142;BME280;1581;51.568;6.998;2023-01-26T11:05:21;101689.53;;;2.80;100.00
3142;BME280;1581;51.568;6.998;2023-01-26T11:07:51;101686.94;;;2.91;100.00
3142;BME280;1581;51.568;6.998;2023-01-26T11:10:28;101687.88;;;2.90;100.00
3142;BME280;1581;51.568;6.998;2023-01-26T11:13:14;101684.25;;;2.58;100.00
3142;BME280;1581;51.568;6.998;2023-01-26T11:15:47;101695.75;;;2.68;100.00
3142;BME280;1581;51.568;6.998;2023-01-26T11:18:32;101683.84;;;2.97;100.00
3142;BME280;1581;51.568;6.998;2023-01-26T11:21:11;101682.63;;;2.79;100.00
3142;BME280;1581;51.568;6.998;2023-01-26T11:23:55;101682.47;;;2.70;100.00
3142;BME280;1581;51.568;6.998;2023-01-26T11:26:47;101684.91;;;3.06;100.00
3142;BME280;1581;51.568;6.998;2023-01-26T11:29:41;101682.53;;;3.03;100.00
3142;BME280;1581;51.568;6.998;2023-01-26T11:32:21;101685.16;;;3.36;100.00
3142;BME280;1581;51.568;6.998;2023-01-26T11:35:07;101683.84;;;2.97;100.00
3142;BME280;1581;51.568;6.998;2023-01-26T11:37:42;101688.75;;;3.02;100.00
3142;BME280;1581;51.568;6.998;2023-01-26T11:40:29;101688.47;;;2.72;100.00
3142;BME280;1581;51.568;6.998;2023-01-26T11:43:21;101684.00;;;2.61;100.00
3142;BME280;1581;51.568;6.998;2023-01-26T11:46:20;101681.00;;;2.66;100.00
3142;BME280;1581;51.568;6.998;2023-01-26T11:49:06;101672.22;;;2.89;100.00
3142;BME280;1581;51.568;6.998;2023-01-26T11:51:54;101673.81;;;3.35;100.00
3142;BME280;1581;51.568;6.998;2023-01-26T11:54:56;101678.53;;;2.75;100.00
3142;BME280;1581;51.568;6.998;2023-01-26T11:57:38;101672.72;;;3.38;100.00
3142;BME280;1581;51.568;6.998;2023-01-26T12:00:37;101667.44;;;3.16;100.00
3142;BME280;1581;51.568;6.998;2023-01-26T12:03:18;101665.53;;;3.18;100.00
3142;BME280;1581;51.568;6.998;2023-01-26T12:05:56;101657.41;;;3.42;100.00
3142;BME280;1581;51.568;6.998;2023-01-26T12:08:30;101657.06;;;3.14;100.00
3142;BME280;1581;51.568;6.998;2023-01-26T12:11:16;101648.41;;;3.56;100.00
3142;BME280;1581;51.568;6.998;2023-01-26T12:14:01;101642.91;;;3.59;100.00
3142;BME280;1581;51.568;6.998;2023-01-26T12:16:39;101648.03;;;3.71;100.00
3142;BME280;1581;51.568;6.998;2023-01-26T12:19:23;101640.38;;;3.57;100.00
3142;BME280;1581;51.568;6.998;2023-01-26T12:22:05;101638.81;;;3.66;100.00
3142;BME280;1581;51.568;6.998;2023-01-26T12:24:50;101634.72;;;3.62;100.00
3142;BME280;1581;51.568;6.998;2023-01-26T12:27:25;101634.06;;;3.91;100.00
3142;BME280;1581;51.568;6.998;2023-01-26T12:30:05;101629.28;;;3.85;100.00
3142;BME280;1581;51.568;6.998;2023-01-26T12:32:35;101627.09;;;3.59;100.00
3142;BME280;1581;51.568;6.998;2023-01-26T12:35:08;101624.13;;;3.84;100.00
3142;BME280;1581;51.568;6.998;2023-01-26T12:37:50;101617.78;;;3.86;100.00
3142;BME280;1581;51.568;6.998;2023-01-26T12:40:29;101619.25;;;3.79;100.00
3142;BME280;1581;51.568;6.998;2023-01-26T12:43:15;101622.09;;;3.87;100.00
3142;BME280;1581;51.568;6.998;2023-01-26T12:45:53;101618.06;;;3.72;100.00
3142;BME280;1581;51.568;6.998;2023-01-26T12:48:37;101618.16;;;3.82;100.00
3142;BME280;1581;51.568;6.998;2023-01-26T12:51:10;101614.00;;;4.00;100.00
3142;BME280;1581;51.568;6.998;2023-01-26T12:53:50;101626.19;;;3.80;100.00
3142;BME280;1581;51.568;6.998;2023-01-26T12:56:26;101620.22;;;3.67;100.00
3142;BME280;1581;51.568;6.998;2023-01-26T12:58:58;101615.72;;;3.90;100.00
3142;BME280;1581;51.568;6.998;2023-01-26T13:01:37;101610.06;;;3.63;100.00
3142;BME280;1581;51.568;6.998;2023-01-26T13:04:10;101607.94;;;3.88;100.00
3142;BME280;1581;51.568;6.998;2023-01-26T13:06:39;101606.66;;;4.14;100.00
3142;BME280;1581;51.568;6.998;2023-01-26T13:09:23;101604.97;;;3.82;100.00
3142;BME280;1581;51.568;6.998;2023-01-26T13:11:54;101606.84;;;3.91;100.00
3142;BME280;1581;51.568;6.998;2023-01-26T13:14:36;101599.22;;;3.88;100.00
3142;BME280;1581;51.568;6.998;2023-01-26T13:17:54;101603.63;;;3.45;100.00
3142;BME280;1581;51.568;6.998;2023-01-26T13:23:42;101603.25;;;3.49;100.00
3142;BME280;1581;51.568;6.998;2023-01-26T13:26:27;101596.97;;;3.72;100.00
3142;BME280;1581;51.568;6.998;2023-01-26T13:29:32;101591.47;;;3.64;100.00
3142;BME280;1581;51.568;6.998;2023-01-26T13:35:10;101601.78;;;3.67;100.00
3142;BME280;1581;51.568;6.998;2023-01-26T13:37:48;101603.03;;;3.84;100.00
3142;BME280;1581;51.568;6.998;2023-01-26T13:40:22;101592.38;;;3.43;100.00
3142;BME280;1581;51.568;6.998;2023-01-26T13:42:59;101591.59;;;3.63;100.00
3142;BME280;1581;51.568;6.998;2023-01-26T13:45:34;101594.34;;;3.72;100.00
3142;BME280;1581;51.568;6.998;2023-01-26T13:48:11;101601.84;;;3.88;100.00